Time;durP1;ratioP1;P1;durP2;ratioP2;P2;SDS_P1;SDS_P2;PMS_P1;PMS_P2;Temp;Humidity;BMP_temperature;BMP_pressure;BME280_temperature;BME280_humidity;BME280_pressure;Samples;Min_cycle;Max_cycle;Signal;HPM_P1;HPM_P2
2023/04/05 00:00:58;;;;;;;7.03;5.40;;;;;;;;;;5068853;28;20032;-67
2023/04/05 00:03:24;;;;;;;9.88;5.65;;;;;;;;;;5070273;28;20060;-67
2023/04/05 00:05:53;;;;;;;8.18;5.07;;;;;;;;;;5066625;28;20115;-67
2023/04/05 00:08:27;;;;;;;5.40;4.57;;;;;;;;;;5071361;28;20127;-65
2023/04/05 00:10:53;;;;;;;6.25;5.25;;;;;;;;;;5069587;28;20039;-66
2023/04/05 00:13:20;;;;;;;7.25;5.13;;;;;;;;;;5068538;28;20032;-67
2023/04/05 00:15:47;;;;;;;6.45;5.50;;;;;;;;;;5069595;28;20047;-67
2023/04/05 00:18:20;;;;;;;10.55;5.65;;;;;;;;;;5068495;28;20032;-66
2023/04/05 00:20:48;;;;;;;6.40;4.63;;;;;;;;;;5068964;28;20078;-67
2023/04/05 00:23:15;;;;;;;6.70;5.28;;;;;;;;;;5066026;28;20090;-66
2023/04/05 00:25:41;;;;;;;6.65;5.20;;;;;;;;;;5069350;28;20029;-66
2023/04/05 00:28:07;;;;;;;8.80;5.32;;;;;;;;;;5070211;28;20032;-67
2023/04/05 00:30:32;;;;;;;9.13;5.57;;;;;;;;;;5050770;28;20032;-67
2023/04/05 00:32:58;;;;;;;7.75;5.75;;;;;;;;;;5049783;28;20036;-67
2023/04/05 00:35:26;;;;;;;8.65;5.78;;;;;;;;;;5069260;28;20031;-66
2023/04/05 00:37:52;;;;;;;11.77;6.10;;;;;;;;;;5051668;28;20037;-66
2023/04/05 00:40:17;;;;;;;7.90;5.55;;;;;;;;;;5051051;28;20029;-66
2023/04/05 00:42:43;;;;;;;5.95;5.30;;;;;;;;;;5048252;28;20504;-67
2023/04/05 00:45:09;;;;;;;10.18;5.30;;;;;;;;;;5073236;28;20408;-66
2023/04/05 00:47:35;;;;;;;9.45;5.82;;;;;;;;;;5051119;28;20039;-67
2023/04/05 00:50:01;;;;;;;6.50;5.60;;;;;;;;;;5067689;28;20115;-67
2023/04/05 00:52:29;;;;;;;8.50;5.70;;;;;;;;;;5068014;28;20054;-67
2023/04/05 00:54:55;;;;;;;9.63;6.00;;;;;;;;;;5069645;28;20060;-67
2023/04/05 00:57:23;;;;;;;8.32;6.15;;;;;;;;;;5052659;28;20065;-66
2023/04/05 00:59:49;;;;;;;8.32;6.57;;;;;;;;;;5064733;28;20045;-67
2023/04/05 01:02:24;;;;;;;9.77;5.90;;;;;;;;;;5052033;28;20581;-67
2023/04/05 01:05:01;;;;;;;8.15;6.00;;;;;;;;;;5050530;28;20044;-66
2023/04/05 01:07:30;;;;;;;7.47;5.82;;;;;;;;;;5065014;28;20375;-65
2023/04/05 01:09:58;;;;;;;8.77;5.93;;;;;;;;;;5067236;28;20032;-67
2023/04/05 01:12:31;;;;;;;7.82;6.55;;;;;;;;;;5067336;28;20135;-67
2023/04/05 01:14:57;;;;;;;9.02;6.30;;;;;;;;;;5070946;28;20040;-66
2023/04/05 01:17:27;;;;;;;8.50;6.60;;;;;;;;;;5049548;28;20075;-66
2023/04/05 01:20:07;;;;;;;8.68;5.65;;;;;;;;;;5050158;28;20066;-67
2023/04/05 01:22:49;;;;;;;12.02;7.15;;;;;;;;;;5049202;28;20134;-66
2023/04/05 01:25:29;;;;;;;7.78;6.22;;;;;;;;;;5047855;28;20611;-66
2023/04/05 01:28:41;;;;;;;6.38;5.28;;;;;;;;;;5066338;28;20487;-67
2023/04/05 01:31:28;;;;;;;9.40;6.82;;;;;;;;;;5014236;28;20068;-67
2023/04/05 01:34:28;;;;;;;12.48;6.90;;;;;;;;;;5050271;28;20480;-67
2023/04/05 01:37:02;;;;;;;9.57;6.35;;;;;;;;;;5059374;28;20051;-67
2023/04/05 01:39:29;;;;;;;10.00;6.47;;;;;;;;;;5068029;28;20058;-67
2023/04/05 01:42:00;;;;;;;7.80;6.07;;;;;;;;;;5047204;28;20078;-66
2023/04/05 01:44:26;;;;;;;15.32;8.23;;;;;;;;;;5048851;28;20032;-67
2023/04/05 01:46:54;;;;;;;11.40;7.30;;;;;;;;;;5051654;28;20138;-66
2023/04/05 01:49:22;;;;;;;10.95;6.70;;;;;;;;;;5068591;28;20092;-66
2023/04/05 01:51:48;;;;;;;9.95;7.10;;;;;;;;;;5051610;28;20044;-66
2023/04/05 01:54:13;;;;;;;9.50;6.93;;;;;;;;;;5032120;28;20085;-66
2023/04/05 01:56:39;;;;;;;6.68;5.97;;;;;;;;;;5068443;28;20028;-67
2023/04/05 01:59:05;;;;;;;11.27;7.47;;;;;;;;;;5066892;28;20426;-67
2023/04/05 02:01:31;;;;;;;7.35;6.22;;;;;;;;;;5050126;28;20491;-67
2023/04/05 02:03:56;;;;;;;9.15;6.97;;;;;;;;;;5066150;28;20039;-65
2023/04/05 02:06:25;;;;;;;9.02;6.45;;;;;;;;;;5045638;28;20048;-66
2023/04/05 02:08:51;;;;;;;7.47;6.57;;;;;;;;;;5067096;28;20167;-66
2023/04/05 02:11:16;;;;;;;9.57;7.40;;;;;;;;;;5046558;28;20770;-66
2023/04/05 02:13:42;;;;;;;9.18;6.80;;;;;;;;;;5065087;28;20057;-68
2023/04/05 02:16:07;;;;;;;10.23;6.78;;;;;;;;;;5066401;28;20042;-66
2023/04/05 02:18:34;;;;;;;10.45;7.10;;;;;;;;;;5048735;28;20041;-66
2023/04/05 02:21:04;;;;;;;14.70;7.30;;;;;;;;;;5052106;28;20419;-67
2023/04/05 02:23:31;;;;;;;9.95;7.72;;;;;;;;;;5064252;28;20127;-66
2023/04/05 02:25:57;;;;;;;8.18;7.25;;;;;;;;;;5048525;28;20063;-67
2023/04/05 02:28:23;;;;;;;10.23;7.18;;;;;;;;;;5069386;28;20028;-67
2023/04/05 02:30:52;;;;;;;8.30;6.72;;;;;;;;;;5051526;28;20064;-66
2023/04/05 02:33:17;;;;;;;11.65;7.30;;;;;;;;;;5047867;28;20145;-66
2023/04/05 02:35:43;;;;;;;12.35;6.82;;;;;;;;;;5068742;28;20064;-66
2023/04/05 02:38:09;;;;;;;11.25;7.15;;;;;;;;;;5049432;28;20489;-67
2023/04/05 02:40:35;;;;;;;10.80;7.45;;;;;;;;;;5044062;28;20033;-67
2023/04/05 02:43:01;;;;;;;11.02;7.32;;;;;;;;;;5068801;28;20028;-66
2023/04/05 02:45:27;;;;;;;10.13;6.93;;;;;;;;;;5051197;28;20702;-66
2023/04/05 02:47:55;;;;;;;8.75;6.45;;;;;;;;;;5044180;28;20047;-66
2023/04/05 02:50:22;;;;;;;11.15;6.80;;;;;;;;;;5049106;28;20446;-66
2023/04/05 02:52:49;;;;;;;9.25;6.57;;;;;;;;;;5046778;28;20155;-66
2023/04/05 02:55:15;;;;;;;8.05;7.10;;;;;;;;;;5035696;28;20036;-66
2023/04/05 02:57:44;;;;;;;8.07;7.07;;;;;;;;;;5066017;28;20050;-66
2023/04/05 03:00:27;;;;;;;8.55;6.80;;;;;;;;;;5051837;28;20089;-67
2023/04/05 03:02:55;;;;;;;12.30;7.57;;;;;;;;;;5047943;28;20029;-67
2023/04/05 03:05:21;;;;;;;8.13;6.95;;;;;;;;;;5047678;28;20043;-66
2023/04/05 03:07:51;;;;;;;9.18;7.13;;;;;;;;;;5048067;28;20094;-66
2023/04/05 03:10:21;;;;;;;10.23;7.87;;;;;;;;;;5050161;28;20040;-66
2023/04/05 03:12:51;;;;;;;10.52;7.20;;;;;;;;;;5048914;28;20329;-67
2023/04/05 03:15:21;;;;;;;11.52;7.88;;;;;;;;;;5046026;28;20021;-66
2023/04/05 03:17:46;;;;;;;11.88;7.97;;;;;;;;;;5048205;28;20063;-67
2023/04/05 03:20:12;;;;;;;10.00;7.32;;;;;;;;;;5045762;28;20033;-67
2023/04/05 03:22:39;;;;;;;7.03;6.30;;;;;;;;;;5050669;28;20036;-65
2023/04/05 03:25:06;;;;;;;10.48;8.02;;;;;;;;;;5046070;28;20025;-66
2023/04/05 03:27:38;;;;;;;13.27;8.02;;;;;;;;;;5053513;28;20504;-66
2023/04/05 03:30:09;;;;;;;8.02;6.40;;;;;;;;;;5053022;28;20040;-66
2023/04/05 03:32:40;;;;;;;12.48;7.78;;;;;;;;;;5065296;28;20054;-66
2023/04/05 03:35:34;;;;;;;8.15;7.10;;;;;;;;;;5050891;28;20056;-66
2023/04/05 03:38:01;;;;;;;8.30;6.97;;;;;;;;;;5050458;28;20020;-67
2023/04/05 03:40:28;;;;;;;14.45;7.13;;;;;;;;;;5072924;28;20035;-66
2023/04/05 03:42:53;;;;;;;12.48;7.13;;;;;;;;;;5052610;28;20098;-66
2023/04/05 03:45:19;;;;;;;13.00;8.25;;;;;;;;;;5069134;28;20447;-66
2023/04/05 03:47:44;;;;;;;9.95;7.25;;;;;;;;;;5069941;28;20048;-66
2023/04/05 03:50:10;;;;;;;9.93;7.03;;;;;;;;;;5054759;28;20032;-67
2023/04/05 03:52:36;;;;;;;10.50;7.93;;;;;;;;;;5068026;28;20107;-66
2023/04/05 03:55:04;;;;;;;8.85;6.80;;;;;;;;;;5050637;28;20033;-66
2023/04/05 03:57:32;;;;;;;10.48;7.18;;;;;;;;;;5051502;28;20656;-67
2023/04/05 04:00:16;;;;;;;8.30;6.88;;;;;;;;;;5051650;28;20036;-67
2023/04/05 04:02:48;;;;;;;10.25;7.53;;;;;;;;;;5066836;28;20044;-67
2023/04/05 04:05:20;;;;;;;13.77;8.75;;;;;;;;;;5047787;28;20036;-66
2023/04/05 04:07:49;;;;;;;12.02;8.65;;;;;;;;;;5051508;28;20135;-67
2023/04/05 04:10:16;;;;;;;12.05;8.07;;;;;;;;;;5031978;28;20047;-66
2023/04/05 04:12:45;;;;;;;9.43;8.37;;;;;;;;;;5051838;28;20074;-66
2023/04/05 04:15:11;;;;;;;15.82;9.90;;;;;;;;;;5049182;28;20308;-66
2023/04/05 04:17:55;;;;;;;51.30;20.45;;;;;;;;;;5067297;28;20058;-66
2023/04/05 04:20:29;;;;;;;29.52;18.35;;;;;;;;;;5052015;28;20105;-66
2023/04/05 04:23:08;;;;;;;5.28;4.82;;;;;;;;;;5047737;28;20584;-66
2023/04/05 04:26:01;;;;;;;6.63;6.05;;;;;;;;;;5071322;28;20037;-66
2023/04/05 04:28:43;;;;;;;6.70;5.93;;;;;;;;;;5047391;28;20052;-66
2023/04/05 04:31:20;;;;;;;7.10;5.65;;;;;;;;;;5067761;28;20040;-66
2023/04/05 04:33:54;;;;;;;3.90;3.50;;;;;;;;;;5049811;28;20111;-66
2023/04/05 04:36:47;;;;;;;3.47;3.22;;;;;;;;;;5062977;28;20045;-66
2023/04/05 04:39:38;;;;;;;12.50;8.38;;;;;;;;;;5056774;28;20416;-67
2023/04/05 04:42:37;;;;;;;14.05;7.30;;;;;;;;;;5052656;28;20042;-64
2023/04/05 04:45:26;;;;;;;10.90;8.30;;;;;;;;;;5057690;28;20544;-64
2023/04/05 04:48:18;;;;;;;8.95;7.25;;;;;;;;;;5055143;28;20060;-64
2023/04/05 04:50:51;;;;;;;14.68;7.32;;;;;;;;;;5066014;28;20059;-64
2023/04/05 04:53:17;;;;;;;10.05;7.78;;;;;;;;;;5035109;28;20700;-64
2023/04/05 04:55:44;;;;;;;14.10;7.38;;;;;;;;;;5064123;28;20072;-64
2023/04/05 04:58:11;;;;;;;8.90;6.70;;;;;;;;;;5061663;28;20067;-63
2023/04/05 05:00:42;;;;;;;12.75;7.85;;;;;;;;;;5070557;28;20040;-64
2023/04/05 05:03:12;;;;;;;11.40;7.97;;;;;;;;;;5071212;28;20032;-63
2023/04/05 05:05:45;;;;;;;15.13;7.15;;;;;;;;;;5062801;28;20719;-64
2023/04/05 05:08:11;;;;;;;9.27;7.32;;;;;;;;;;5064762;28;20067;-64
2023/04/05 05:10:39;;;;;;;6.13;5.53;;;;;;;;;;5048673;28;20040;-64
2023/04/05 05:13:05;;;;;;;6.90;6.20;;;;;;;;;;5051492;28;20081;-64
2023/04/05 05:15:30;;;;;;;10.60;7.03;;;;;;;;;;5066140;28;20086;-65
2023/04/05 05:17:57;;;;;;;10.13;7.68;;;;;;;;;;5065555;28;20028;-65
2023/04/05 05:20:27;;;;;;;13.48;7.95;;;;;;;;;;5070272;28;20637;-64
2023/04/05 05:22:57;;;;;;;10.00;7.05;;;;;;;;;;5069204;28;20205;-64
2023/04/05 05:25:22;;;;;;;11.30;8.15;;;;;;;;;;5063625;28;20043;-64
2023/04/05 05:27:49;;;;;;;11.50;8.13;;;;;;;;;;5072058;28;20040;-65
2023/04/05 05:30:15;;;;;;;10.43;7.18;;;;;;;;;;5069834;28;20043;-63
2023/04/05 05:32:41;;;;;;;12.80;8.80;;;;;;;;;;5064986;28;20044;-64
2023/04/05 05:35:07;;;;;;;17.27;9.68;;;;;;;;;;5065348;28;20036;-65
2023/04/05 05:37:33;;;;;;;13.20;9.45;;;;;;;;;;5069609;28;20028;-65
2023/04/05 05:39:59;;;;;;;15.90;9.40;;;;;;;;;;5067155;28;20044;-65
2023/04/05 05:42:26;;;;;;;18.67;11.07;;;;;;;;;;5065247;28;20066;-65
2023/04/05 05:44:52;;;;;;;11.27;8.48;;;;;;;;;;5067123;28;20129;-64
2023/04/05 05:47:17;;;;;;;15.05;9.68;;;;;;;;;;5070532;28;20484;-65
2023/04/05 05:49:43;;;;;;;8.57;7.13;;;;;;;;;;5068875;28;20036;-64
2023/04/05 05:52:09;;;;;;;11.55;8.07;;;;;;;;;;5065735;28;20388;-65
2023/04/05 05:54:35;;;;;;;10.48;8.13;;;;;;;;;;5067399;28;20032;-65
2023/04/05 05:57:01;;;;;;;11.10;7.78;;;;;;;;;;5070763;28;20047;-65
2023/04/05 05:59:26;;;;;;;11.77;8.60;;;;;;;;;;5047962;28;20051;-65
2023/04/05 06:01:53;;;;;;;9.27;7.97;;;;;;;;;;5065759;28;20032;-64
2023/04/05 06:04:19;;;;;;;12.50;8.35;;;;;;;;;;5070060;28;20066;-64
2023/04/05 06:06:46;;;;;;;13.50;9.02;;;;;;;;;;5069576;28;20044;-64
2023/04/05 06:09:14;;;;;;;11.23;8.02;;;;;;;;;;5070018;28;20055;-64
2023/04/05 06:11:39;;;;;;;14.38;9.65;;;;;;;;;;5067514;28;20075;-65
2023/04/05 06:14:05;;;;;;;13.15;9.18;;;;;;;;;;5067991;28;20056;-64
2023/04/05 06:16:30;;;;;;;20.33;10.55;;;;;;;;;;5067794;28;20032;-65
2023/04/05 06:18:56;;;;;;;13.23;9.48;;;;;;;;;;5064992;28;20032;-64
2023/04/05 06:21:22;;;;;;;12.32;8.63;;;;;;;;;;5068265;28;20032;-64
2023/04/05 06:23:48;;;;;;;16.83;10.20;;;;;;;;;;5068276;28;20036;-64
2023/04/05 06:26:23;;;;;;;11.93;9.20;;;;;;;;;;5069934;28;20103;-65
2023/04/05 06:28:49;;;;;;;11.52;8.70;;;;;;;;;;5064874;28;20487;-64
2023/04/05 06:31:16;;;;;;;10.38;7.63;;;;;;;;;;5067814;28;20048;-64
2023/04/05 06:33:42;;;;;;;13.88;9.40;;;;;;;;;;5068416;28;20495;-64
2023/04/05 06:36:08;;;;;;;13.38;8.25;;;;;;;;;;5065107;28;20032;-65
2023/04/05 06:38:35;;;;;;;13.45;9.65;;;;;;;;;;5066269;28;20029;-65
2023/04/05 06:41:01;;;;;;;16.17;10.02;;;;;;;;;;5071705;28;20088;-65
2023/04/05 06:43:26;;;;;;;16.52;10.20;;;;;;;;;;5064724;28;20044;-64
2023/04/05 06:45:55;;;;;;;12.07;9.35;;;;;;;;;;5066951;28;20033;-65
2023/04/05 06:48:20;;;;;;;11.98;9.13;;;;;;;;;;5070838;28;20060;-64
2023/04/05 06:50:46;;;;;;;15.68;9.18;;;;;;;;;;5068755;28;20815;-64
2023/04/05 06:53:14;;;;;;;12.65;9.07;;;;;;;;;;5066108;28;20036;-65
2023/04/05 06:55:41;;;;;;;10.82;9.43;;;;;;;;;;5072692;28;20040;-65
2023/04/05 06:58:07;;;;;;;11.00;8.80;;;;;;;;;;5074276;28;20036;-64
2023/04/05 07:00:32;;;;;;;17.30;11.20;;;;;;;;;;5075457;28;20212;-65
2023/04/05 07:02:58;;;;;;;20.83;13.45;;;;;;;;;;5066970;28;20032;-65
2023/04/05 07:05:23;;;;;;;10.35;9.30;;;;;;;;;;5070821;28;20167;-65
2023/04/05 07:07:49;;;;;;;14.07;9.13;;;;;;;;;;5071639;28;20223;-65
2023/04/05 07:10:15;;;;;;;18.60;10.55;;;;;;;;;;5065749;28;20490;-65
2023/04/05 07:12:40;;;;;;;12.57;9.65;;;;;;;;;;5071580;28;20078;-65
2023/04/05 07:15:07;;;;;;;11.55;10.23;;;;;;;;;;5073827;28;20032;-65
2023/04/05 07:17:32;;;;;;;11.88;10.23;;;;;;;;;;5073095;28;20050;-65
2023/04/05 07:19:58;;;;;;;14.88;10.02;;;;;;;;;;5066683;28;20028;-65
2023/04/05 07:22:23;;;;;;;18.15;10.18;;;;;;;;;;5070383;28;20215;-65
2023/04/05 07:24:49;;;;;;;14.48;10.65;;;;;;;;;;5072213;28;20032;-65
2023/04/05 07:27:14;;;;;;;13.48;10.75;;;;;;;;;;5073336;28;20072;-64
2023/04/05 07:29:42;;;;;;;13.60;10.40;;;;;;;;;;5066926;28;20089;-66
2023/04/05 07:32:08;;;;;;;15.15;11.02;;;;;;;;;;5069542;28;20100;-65
2023/04/05 07:34:35;;;;;;;16.50;10.93;;;;;;;;;;5072642;28;20055;-65
2023/04/05 07:37:02;;;;;;;12.30;11.00;;;;;;;;;;5067310;28;20033;-64
2023/04/05 07:39:27;;;;;;;13.65;9.55;;;;;;;;;;5073385;28;20031;-65
2023/04/05 07:41:53;;;;;;;12.75;10.10;;;;;;;;;;5069035;28;20040;-65
2023/04/05 07:44:18;;;;;;;14.43;10.70;;;;;;;;;;5065737;28;20024;-65
2023/04/05 07:46:44;;;;;;;17.77;10.70;;;;;;;;;;5068929;28;20036;-65
2023/04/05 07:49:11;;;;;;;10.00;8.52;;;;;;;;;;5071195;28;20048;-65
2023/04/05 07:51:37;;;;;;;12.18;9.63;;;;;;;;;;5068013;28;20029;-65
2023/04/05 07:54:04;;;;;;;15.05;11.02;;;;;;;;;;5069293;28;20034;-65
2023/04/05 07:56:30;;;;;;;10.07;8.88;;;;;;;;;;5072569;28;20043;-66
2023/04/05 07:58:56;;;;;;;9.60;8.60;;;;;;;;;;5075050;28;20308;-65
2023/04/05 08:01:26;;;;;;;11.45;10.02;;;;;;;;;;5067461;28;20426;-65
2023/04/05 08:03:53;;;;;;;8.55;7.68;;;;;;;;;;5073078;28;20515;-65
2023/04/05 08:06:19;;;;;;;12.50;8.93;;;;;;;;;;5073544;28;20063;-65
2023/04/05 08:08:45;;;;;;;8.85;8.07;;;;;;;;;;5068119;28;20072;-65
2023/04/05 08:11:11;;;;;;;7.88;7.13;;;;;;;;;;5071236;28;20115;-65
2023/04/05 08:13:40;;;;;;;8.68;7.97;;;;;;;;;;5071280;28;20119;-65
2023/04/05 08:16:07;;;;;;;7.85;7.20;;;;;;;;;;5070257;28;20416;-66
2023/04/05 08:18:32;;;;;;;10.77;9.68;;;;;;;;;;5067668;28;20059;-66
2023/04/05 08:20:58;;;;;;;11.63;10.40;;;;;;;;;;5070834;28;20064;-65
2023/04/05 08:23:24;;;;;;;11.40;8.60;;;;;;;;;;5071559;28;20104;-65
2023/04/05 08:25:50;;;;;;;8.88;8.00;;;;;;;;;;5068392;28;20036;-65
2023/04/05 08:28:16;;;;;;;9.00;8.10;;;;;;;;;;5067451;28;20452;-66
2023/04/05 08:30:41;;;;;;;9.10;7.88;;;;;;;;;;5070231;28;20107;-67
2023/04/05 08:33:07;;;;;;;13.77;10.00;;;;;;;;;;5073683;28;20032;-65
2023/04/05 08:35:35;;;;;;;8.77;7.68;;;;;;;;;;5066979;28;20491;-67
2023/04/05 08:38:01;;;;;;;10.13;7.45;;;;;;;;;;5074066;28;20031;-67
2023/04/05 08:40:41;;;;;;;10.68;8.23;;;;;;;;;;5070840;28;20035;-66
2023/04/05 08:43:39;;;;;;;8.88;7.88;;;;;;;;;;5069868;28;20037;-66
2023/04/05 08:46:08;;;;;;;11.65;7.18;;;;;;;;;;5068165;28;20031;-66
2023/04/05 08:48:35;;;;;;;9.10;8.23;;;;;;;;;;5072649;28;20127;-66
2023/04/05 08:51:00;;;;;;;8.50;7.55;;;;;;;;;;5070935;28;20442;-66
2023/04/05 08:53:26;;;;;;;8.30;7.45;;;;;;;;;;5068113;28;20142;-66
2023/04/05 08:55:55;;;;;;;7.07;6.20;;;;;;;;;;5069451;28;20039;-66
2023/04/05 08:58:22;;;;;;;;;;;;;;;;;;5072520;28;20052;-66
2023/04/05 09:00:49;;;;;;;8.02;7.38;;;;;;;;;;5067562;28;20286;-66
2023/04/05 09:03:18;;;;;;;10.50;7.85;;;;;;;;;;5069251;28;20103;-67
2023/04/05 09:05:45;;;;;;;;;;;;;;;;;;5074248;28;20036;-67
2023/04/05 09:08:12;;;;;;;8.27;7.47;;;;;;;;;;5067901;28;20303;-66
2023/04/05 09:10:38;;;;;;;8.23;7.43;;;;;;;;;;5067704;28;20086;-66
2023/04/05 09:13:04;;;;;;;8.00;7.30;;;;;;;;;;5070804;28;20036;-67
2023/04/05 09:15:30;;;;;;;8.25;7.43;;;;;;;;;;5074679;28;20569;-67
2023/04/05 09:17:56;;;;;;;8.55;7.50;;;;;;;;;;5067376;28;20021;-67
2023/04/05 09:20:22;;;;;;;9.30;6.93;;;;;;;;;;5069027;28;20047;-66
2023/04/05 09:22:47;;;;;;;8.45;7.72;;;;;;;;;;5068991;28;20043;-67
2023/04/05 09:25:38;;;;;;;7.00;6.30;;;;;;;;;;5067492;28;20123;-66
2023/04/05 09:28:08;;;;;;;7.65;6.95;;;;;;;;;;5062091;28;20047;-66
2023/04/05 09:30:35;;;;;;;8.30;7.20;;;;;;;;;;5068408;28;20039;-66
2023/04/05 09:33:03;;;;;;;8.15;7.40;;;;;;;;;;5051521;28;20055;-66
2023/04/05 09:35:30;;;;;;;7.97;6.88;;;;;;;;;;5067750;28;20024;-66
2023/04/05 09:38:00;;;;;;;8.40;7.35;;;;;;;;;;5068011;28;20124;-67
2023/04/05 09:40:45;;;;;;;8.77;7.18;;;;;;;;;;5052397;28;20032;-66
2023/04/05 09:43:41;;;;;;;9.13;8.18;;;;;;;;;;5049284;28;20498;-66
2023/04/05 09:46:32;;;;;;;8.38;7.68;;;;;;;;;;5063200;28;20376;-66
2023/04/05 09:49:00;;;;;;;7.90;7.20;;;;;;;;;;5067060;28;20076;-66
2023/04/05 09:51:34;;;;;;;8.23;7.30;;;;;;;;;;5064900;28;20458;-66
2023/04/05 09:54:04;;;;;;;7.95;7.15;;;;;;;;;;5064548;28;20060;-67
2023/04/05 09:56:33;;;;;;;8.38;7.57;;;;;;;;;;5067493;28;20495;-67
2023/04/05 09:59:01;;;;;;;7.82;7.13;;;;;;;;;;5065741;28;20119;-66
2023/04/05 10:01:29;;;;;;;9.35;8.45;;;;;;;;;;5065789;28;20036;-67
2023/04/05 10:03:57;;;;;;;8.27;6.72;;;;;;;;;;5066449;28;20032;-68
2023/04/05 10:06:22;;;;;;;8.55;5.68;;;;;;;;;;5067587;28;20040;-68
2023/04/05 10:08:49;;;;;;;7.45;6.75;;;;;;;;;;5066172;28;20040;-68
2023/04/05 10:11:17;;;;;;;12.63;9.50;;;;;;;;;;5064588;28;20123;-67
2023/04/05 10:13:44;;;;;;;7.70;7.00;;;;;;;;;;5066683;28;20123;-66
2023/04/05 10:16:12;;;;;;;7.70;6.90;;;;;;;;;;5066586;28;20436;-67
2023/04/05 10:18:45;;;;;;;6.95;6.28;;;;;;;;;;5065169;28;20064;-67
2023/04/05 10:21:14;;;;;;;6.78;5.97;;;;;;;;;;5064396;28;20036;-67
2023/04/05 10:23:42;;;;;;;;;;;;;;;;;;5064948;28;20047;-65
2023/04/05 10:26:30;;;;;;;7.75;7.00;;;;;;;;;;5066855;28;20011;-67
2023/04/05 10:29:05;;;;;;;7.50;6.80;;;;;;;;;;5062902;28;20032;-67
2023/04/05 10:32:20;;;;;;;7.85;6.75;;;;;;;;;;5070201;28;20032;-67
2023/04/05 10:35:10;;;;;;;10.63;8.90;;;;;;;;;;4968127;28;20485;-67
2023/04/05 10:37:57;;;;;;;9.35;8.35;;;;;;;;;;4915975;29;20079;-67
2023/04/05 10:40:23;;;;;;;8.30;7.50;;;;;;;;;;4928814;29;20523;-67
2023/04/05 10:42:49;;;;;;;8.73;7.80;;;;;;;;;;4922514;29;20055;-67
2023/04/05 10:45:18;;;;;;;7.95;6.60;;;;;;;;;;4922740;29;20423;-67
2023/04/05 10:47:51;;;;;;;8.13;6.35;;;;;;;;;;4922146;29;20227;-67
2023/04/05 10:50:22;;;;;;;8.82;6.60;;;;;;;;;;4925835;29;20251;-68
2023/04/05 10:52:48;;;;;;;6.90;6.38;;;;;;;;;;4905277;29;20059;-67
2023/04/05 10:55:15;;;;;;;13.48;6.80;;;;;;;;;;4927579;29;20563;-67
2023/04/05 10:57:42;;;;;;;9.48;7.30;;;;;;;;;;4923814;29;20056;-67
2023/04/05 11:00:11;;;;;;;7.60;7.00;;;;;;;;;;4924158;29;20440;-67
2023/04/05 11:02:37;;;;;;;8.60;7.70;;;;;;;;;;4920990;29;20043;-68
2023/04/05 11:05:03;;;;;;;7.97;7.28;;;;;;;;;;4919679;29;20054;-68
2023/04/05 11:07:43;;;;;;;8.00;7.30;;;;;;;;;;4922773;28;20384;-67
2023/04/05 11:10:16;;;;;;;8.10;6.68;;;;;;;;;;4989485;28;20140;-67
2023/04/05 11:12:45;;;;;;;8.23;7.22;;;;;;;;;;5069953;28;20035;-66
2023/04/05 11:15:29;;;;;;;9.10;6.68;;;;;;;;;;5074925;28;20033;-66
2023/04/05 11:18:02;;;;;;;7.47;6.25;;;;;;;;;;5069079;28;20039;-66
2023/04/05 11:20:40;;;;;;;36.85;22.48;;;;;;;;;;5061208;28;20081;-66
2023/04/05 11:23:06;;;;;;;6.97;6.45;;;;;;;;;;5074735;28;20416;-67
2023/04/05 11:25:38;;;;;;;8.43;7.00;;;;;;;;;;5071163;28;20045;-66
2023/04/05 11:28:04;;;;;;;7.03;6.43;;;;;;;;;;5072245;28;20444;-67
2023/04/05 11:30:47;;;;;;;7.88;7.18;;;;;;;;;;5072771;28;20047;-67
2023/04/05 11:33:35;;;;;;;8.13;7.32;;;;;;;;;;5068069;28;20086;-68
2023/04/05 11:36:01;;;;;;;7.97;7.20;;;;;;;;;;5070712;28;20044;-68
2023/04/05 11:38:27;;;;;;;9.93;7.80;;;;;;;;;;5068232;28;20020;-68
2023/04/05 11:41:05;;;;;;;8.43;7.60;;;;;;;;;;5073418;28;20039;-67
2023/04/05 11:43:33;;;;;;;7.63;6.72;;;;;;;;;;5069754;28;20036;-67
2023/04/05 11:46:03;;;;;;;8.93;7.18;;;;;;;;;;5064566;28;20036;-67
2023/04/05 11:48:28;;;;;;;8.27;7.47;;;;;;;;;;5070259;28;20062;-67
2023/04/05 11:50:56;;;;;;;8.10;7.30;;;;;;;;;;5071329;28;20411;-67
2023/04/05 11:53:21;;;;;;;7.35;6.65;;;;;;;;;;5070254;28;20075;-67
2023/04/05 11:55:50;;;;;;;7.47;6.75;;;;;;;;;;5071636;28;20060;-67
2023/04/05 11:58:22;;;;;;;7.60;6.90;;;;;;;;;;5072680;28;20325;-68
2023/04/05 12:00:58;;;;;;;8.25;7.47;;;;;;;;;;5071920;28;20036;-68
2023/04/05 12:03:27;;;;;;;6.78;6.18;;;;;;;;;;5067084;28;20419;-67
2023/04/05 12:05:54;;;;;;;7.95;7.28;;;;;;;;;;5070142;28;20077;-67
2023/04/05 12:08:21;;;;;;;16.42;10.50;;;;;;;;;;5069517;28;20051;-67
2023/04/05 12:10:57;;;;;;;6.35;5.85;;;;;;;;;;5071496;28;20397;-67
2023/04/05 12:13:31;;;;;;;8.18;7.57;;;;;;;;;;5068870;28;20036;-67
2023/04/05 12:15:58;;;;;;;8.10;7.30;;;;;;;;;;5070850;28;20119;-67
2023/04/05 12:18:25;;;;;;;8.05;7.28;;;;;;;;;;5074035;28;20021;-67
2023/04/05 12:20:52;;;;;;;8.38;7.70;;;;;;;;;;5070757;28;20036;-67
2023/04/05 12:23:20;;;;;;;8.55;7.75;;;;;;;;;;5066425;28;20441;-68
2023/04/05 12:25:47;;;;;;;14.27;10.85;;;;;;;;;;5071903;28;20040;-67
2023/04/05 12:28:13;;;;;;;9.98;8.90;;;;;;;;;;5070711;28;20091;-67
2023/04/05 12:30:53;;;;;;;8.52;7.75;;;;;;;;;;5071164;28;20276;-67
2023/04/05 12:33:39;;;;;;;13.70;10.68;;;;;;;;;;5072226;28;20499;-67
2023/04/05 12:36:06;;;;;;;10.27;8.68;;;;;;;;;;5072540;28;20043;-67
2023/04/05 12:38:32;;;;;;;11.73;10.23;;;;;;;;;;5066010;28;20525;-67
2023/04/05 12:41:01;;;;;;;8.90;8.10;;;;;;;;;;5070288;28;20032;-67
2023/04/05 12:43:40;;;;;;;9.35;8.25;;;;;;;;;;5070907;28;20059;-67
2023/04/05 12:46:10;;;;;;;9.00;8.10;;;;;;;;;;5061911;28;20094;-67
2023/04/05 12:48:36;;;;;;;;;;;;;;;;;;5066991;28;20036;-67
2023/04/05 12:51:14;;;;;;;7.57;6.88;;;;;;;;;;5069524;28;19916;-67
2023/04/05 12:53:50;;;;;;;8.35;7.55;;;;;;;;;;5064808;28;20036;-67
2023/04/05 12:56:16;;;;;;;8.95;8.07;;;;;;;;;;5069441;28;20071;-67
2023/04/05 12:58:42;;;;;;;8.50;7.80;;;;;;;;;;5064438;28;20058;-67
2023/04/05 13:01:09;;;;;;;8.10;7.45;;;;;;;;;;5067318;28;20036;-67
2023/04/05 13:03:34;;;;;;;8.48;7.57;;;;;;;;;;5064291;28;20035;-67
2023/04/05 13:06:00;;;;;;;9.13;8.13;;;;;;;;;;5073029;28;20032;-67
2023/04/05 13:08:26;;;;;;;8.82;8.02;;;;;;;;;;5066773;28;20299;-67
2023/04/05 13:10:52;;;;;;;10.05;7.68;;;;;;;;;;5066866;28;20040;-67
2023/04/05 13:13:21;;;;;;;8.25;7.45;;;;;;;;;;5068211;28;20103;-67
2023/04/05 13:15:46;;;;;;;8.95;7.70;;;;;;;;;;5067410;28;20071;-67
2023/04/05 13:18:13;;;;;;;8.35;7.57;;;;;;;;;;5060954;28;20373;-67
2023/04/05 13:20:40;;;;;;;8.52;7.70;;;;;;;;;;5046565;28;20343;-67
2023/04/05 13:23:09;;;;;;;8.07;7.38;;;;;;;;;;5070391;28;20032;-67
2023/04/05 13:25:36;;;;;;;9.05;7.72;;;;;;;;;;5063514;28;20036;-67
2023/04/05 13:28:01;;;;;;;8.57;7.38;;;;;;;;;;5061375;28;20040;-67
2023/04/05 13:30:27;;;;;;;9.18;8.05;;;;;;;;;;5066966;28;20604;-67
2023/04/05 13:32:52;;;;;;;8.50;6.97;;;;;;;;;;5066923;28;20056;-68
2023/04/05 13:35:18;;;;;;;8.00;7.15;;;;;;;;;;5062908;28;20094;-67
2023/04/05 13:37:44;;;;;;;8.70;7.60;;;;;;;;;;5065012;28;20033;-67
2023/04/05 13:40:09;;;;;;;9.98;6.93;;;;;;;;;;5060602;28;20652;-67
2023/04/05 13:42:35;;;;;;;12.68;11.13;;;;;;;;;;5067564;28;20442;-67
2023/04/05 13:45:00;;;;;;;8.38;7.68;;;;;;;;;;5067148;28;20036;-67
2023/04/05 13:47:26;;;;;;;8.73;7.82;;;;;;;;;;5065374;28;20123;-67
2023/04/05 13:49:52;;;;;;;8.05;7.35;;;;;;;;;;5066244;28;20064;-67
2023/04/05 13:52:17;;;;;;;7.78;7.03;;;;;;;;;;5073301;28;20078;-67
2023/04/05 13:54:43;;;;;;;8.27;7.45;;;;;;;;;;5068228;28;20535;-66
2023/04/05 13:57:10;;;;;;;7.68;6.97;;;;;;;;;;5068439;28;20484;-67
2023/04/05 13:59:35;;;;;;;12.55;7.07;;;;;;;;;;5067936;28;20032;-67
2023/04/05 14:02:01;;;;;;;7.93;7.20;;;;;;;;;;5068186;28;20036;-67
2023/04/05 14:04:27;;;;;;;8.52;7.65;;;;;;;;;;5072506;28;20036;-66
2023/04/05 14:06:53;;;;;;;8.05;7.25;;;;;;;;;;5064961;28;20055;-67
2023/04/05 14:09:18;;;;;;;7.45;6.75;;;;;;;;;;5067277;28;20032;-67
2023/04/05 14:11:44;;;;;;;7.78;7.10;;;;;;;;;;5072469;28;20092;-66
2023/04/05 14:14:09;;;;;;;9.23;7.65;;;;;;;;;;5066520;28;20360;-67
2023/04/05 14:16:36;;;;;;;10.70;7.45;;;;;;;;;;5060353;28;20039;-67
2023/04/05 14:19:03;;;;;;;8.52;7.05;;;;;;;;;;5070178;28;20181;-66
2023/04/05 14:21:29;;;;;;;8.52;6.97;;;;;;;;;;5067418;28;20085;-66
2023/04/05 14:23:56;;;;;;;7.65;7.05;;;;;;;;;;5067871;28;20032;-67
2023/04/05 14:26:26;;;;;;;12.82;8.00;;;;;;;;;;5063537;28;20103;-66
2023/04/05 14:28:52;;;;;;;11.57;7.78;;;;;;;;;;5067430;28;20544;-66
2023/04/05 14:31:18;;;;;;;8.15;7.30;;;;;;;;;;5066392;28;20423;-66
2023/04/05 14:33:44;;;;;;;8.32;7.35;;;;;;;;;;5065138;28;20519;-66
2023/04/05 14:36:09;;;;;;;7.72;7.07;;;;;;;;;;5066250;28;20056;-66
2023/04/05 14:38:35;;;;;;;8.10;7.30;;;;;;;;;;5067927;28;20028;-67
2023/04/05 14:41:01;;;;;;;7.97;7.22;;;;;;;;;;5065151;28;20086;-67
2023/04/05 14:43:27;;;;;;;8.15;7.30;;;;;;;;;;5065726;28;20024;-66
2023/04/05 14:45:53;;;;;;;8.45;6.72;;;;;;;;;;5067657;28;20515;-66
2023/04/05 14:48:18;;;;;;;8.02;7.32;;;;;;;;;;5071864;28;20060;-66
2023/04/05 14:50:44;;;;;;;7.78;6.97;;;;;;;;;;5065062;28;20042;-66